Time;durP1;ratioP1;P1;durP2;ratioP2;P2;SDS_P1;SDS_P2;PMS_P1;PMS_P2;Temp;Humidity;BMP_temperature;BMP_pressure;BME280_temperature;BME280_humidity;BME280_pressure;Samples;Min_cycle;Max_cycle;Signal;HPM_P1;HPM_P2
2023/09/12 00:02:50;;;;;;;16.73;11.18;;;;;;;11.67;67.56;100883.38;1735889;82;21845;-55
2023/09/12 00:06:03;;;;;;;18.73;12.07;;;;;;;11.66;67.60;100885.26;1778239;78;21365;-54
2023/09/12 00:09:10;;;;;;;18.82;11.63;;;;;;;11.65;67.64;100878.57;1790167;79;21449;-55
2023/09/12 00:12:16;;;;;;;16.20;10.68;;;;;;;11.61;67.61;100885.38;1759290;79;21311;-54
2023/09/12 00:15:23;;;;;;;20.35;12.07;;;;;;;11.60;67.73;100880.93;1788563;79;21197;-54
2023/09/12 00:18:29;;;;;;;17.73;10.70;;;;;;;11.59;67.83;100881.97;1787824;78;21461;-54
2023/09/12 00:21:36;;;;;;;16.77;11.38;;;;;;;11.57;67.87;100881.27;1772019;79;21401;-54
2023/09/12 00:24:43;;;;;;;16.25;11.63;;;;;;;11.55;67.91;100876.47;1737346;79;21808;-55
2023/09/12 00:27:48;;;;;;;16.05;10.82;;;;;;;11.53;68.02;100877.14;1785834;79;21417;-55
2023/09/12 00:30:54;;;;;;;18.65;12.40;;;;;;;11.51;68.10;100879.22;1715906;79;21196;-55
2023/09/12 00:34:01;;;;;;;18.05;11.70;;;;;;;11.49;68.18;100882.64;1742065;80;21373;-55
2023/09/12 00:37:08;;;;;;;19.52;10.85;;;;;;;11.46;68.22;100881.61;1766733;79;21781;-55
2023/09/12 00:40:16;;;;;;;19.20;11.97;;;;;;;11.43;68.24;100880.05;1766506;79;21284;-55
2023/09/12 00:43:23;;;;;;;16.25;11.65;;;;;;;11.42;68.32;100881.08;1813010;79;21327;-55
2023/09/12 00:46:29;;;;;;;21.17;11.05;;;;;;;11.40;68.39;100882.29;1810762;77;21382;-55
2023/09/12 00:49:35;;;;;;;18.80;12.05;;;;;;;11.39;68.39;100884.67;1812965;79;21370;-55
2023/09/12 00:52:42;;;;;;;16.85;12.18;;;;;;;11.37;68.42;100879.89;1786694;80;21346;-55
2023/09/12 00:55:53;;;;;;;19.67;11.88;;;;;;;11.34;68.48;100875.59;1794294;78;21366;-55
2023/09/12 00:58:59;;;;;;;20.00;11.75;;;;;;;11.35;68.60;100875.91;1804486;79;21382;-55
2023/09/12 01:02:05;;;;;;;18.75;12.13;;;;;;;11.37;68.63;100882.09;1765933;79;21351;-54
2023/09/12 01:05:15;;;;;;;17.80;10.78;;;;;;;11.37;68.66;100884.00;1767522;78;21295;-54
2023/09/12 01:08:20;;;;;;;18.62;11.55;;;;;;;11.34;68.62;100882.44;1725688;82;21366;-54
2023/09/12 01:11:27;;;;;;;14.65;10.80;;;;;;;11.30;68.55;100887.06;1775839;79;21434;-55
2023/09/12 01:14:34;;;;;;;17.17;11.35;;;;;;;11.25;68.54;100876.61;1764173;79;21398;-55
2023/09/12 01:17:41;;;;;;;19.32;11.57;;;;;;;11.21;68.53;100886.17;1760993;79;21921;-55
2023/09/12 01:20:51;;;;;;;18.35;11.22;;;;;;;11.18;68.54;100881.56;1792227;79;21984;-55
2023/09/12 01:24:09;;;;;;;18.15;11.35;;;;;;;11.18;68.72;100885.67;1761906;78;21303;-55
2023/09/12 01:27:23;;;;;;;19.23;11.83;;;;;;;11.18;68.82;100881.03;1802188;78;21831;-55
2023/09/12 01:30:30;;;;;;;20.25;11.35;;;;;;;11.17;68.85;100881.20;1763700;80;21367;-56
2023/09/12 01:33:37;;;;;;;16.48;10.32;;;;;;;11.14;68.87;100882.41;1765001;79;21331;-55
2023/09/12 01:36:43;;;;;;;22.05;11.53;;;;;;;11.10;68.79;100881.00;1743035;79;21390;-55
2023/09/12 01:39:49;;;;;;;21.25;11.73;;;;;;;11.01;68.72;100880.64;1739614;81;21817;-55
2023/09/12 01:42:55;;;;;;;17.20;10.58;;;;;;;10.95;68.65;100880.45;1793694;79;21204;-55
2023/09/12 01:46:04;;;;;;;19.07;11.30;;;;;;;10.90;68.66;100885.56;1762566;77;23009;-55
2023/09/12 01:49:12;;;;;;;19.45;11.93;;;;;;;10.85;68.68;100885.19;1783144;78;21363;-55
2023/09/12 01:52:22;;;;;;;18.82;11.80;;;;;;;10.84;68.87;100884.86;1767672;78;21385;-55
2023/09/12 01:55:28;;;;;;;18.37;11.60;;;;;;;10.85;69.07;100878.34;1741021;82;21406;-55
2023/09/12 01:58:34;;;;;;;18.40;11.73;;;;;;;10.83;69.10;100879.88;1747733;82;21827;-55
2023/09/12 02:01:42;;;;;;;16.65;11.15;;;;;;;10.79;69.07;100873.03;1749853;82;21824;-55
2023/09/12 02:04:51;;;;;;;18.05;11.00;;;;;;;10.80;69.18;100881.59;1769217;77;21346;-54
2023/09/12 02:08:00;;;;;;;16.23;11.90;;;;;;;10.79;69.22;100873.53;1762525;79;21374;-54
2023/09/12 02:11:05;;;;;;;19.37;11.33;;;;;;;10.74;69.15;100882.75;1747423;82;21455;-54
2023/09/12 02:14:10;;;;;;;21.70;11.55;;;;;;;10.71;69.17;100885.83;1748564;81;21354;-54
2023/09/12 02:17:16;;;;;;;19.05;12.18;;;;;;;10.68;69.28;100881.55;1739575;80;21362;-54
2023/09/12 02:20:22;;;;;;;21.10;12.10;;;;;;;10.70;69.47;100883.63;1736143;80;21471;-55
2023/09/12 02:23:29;;;;;;;18.73;12.20;;;;;;;10.73;69.62;100876.95;1742812;80;21372;-54
2023/09/12 02:26:36;;;;;;;22.87;12.98;;;;;;;10.74;69.64;100875.91;1734524;80;21923;-54
2023/09/12 02:29:42;;;;;;;29.40;15.32;;;;;;;10.72;69.60;100881.55;1741754;81;21382;-54
2023/09/12 02:32:51;;;;;;;34.05;18.23;;;;;;;10.70;69.61;100882.75;1745607;82;22120;-55
2023/09/12 02:35:58;;;;;;;24.18;14.10;;;;;;;10.68;69.58;100880.68;1730055;79;21285;-54
2023/09/12 02:39:05;;;;;;;16.62;11.25;;;;;;;10.67;69.64;100889.93;1790472;79;21338;-55
2023/09/12 02:42:11;;;;;;;20.40;11.78;;;;;;;10.68;69.68;100895.73;1764909;78;21378;-54
2023/09/12 02:45:18;;;;;;;18.57;11.03;;;;;;;10.68;69.69;100890.27;1763880;77;21350;-55
2023/09/12 02:48:25;;;;;;;19.82;11.75;;;;;;;10.70;69.82;100889.59;1742481;79;21406;-54
2023/09/12 02:51:33;;;;;;;19.25;11.28;;;;;;;10.74;69.87;100889.59;1763833;78;21383;-56
2023/09/12 02:54:39;;;;;;;20.23;12.00;;;;;;;10.78;69.92;100906.06;1765719;79;21365;-54
2023/09/12 02:57:47;;;;;;;18.55;10.90;;;;;;;10.79;69.93;100900.92;1778953;79;21330;-55
2023/09/12 03:00:54;;;;;;;18.27;10.82;;;;;;;10.80;69.92;100900.76;1764423;79;21209;-55
2023/09/12 03:04:00;;;;;;;16.35;11.43;;;;;;;10.86;70.04;100906.10;1749648;82;21892;-56
2023/09/12 03:07:06;;;;;;;19.27;11.80;;;;;;;10.90;70.11;100911.08;1767296;79;21931;-56
2023/09/12 03:10:13;;;;;;;23.47;11.35;;;;;;;10.91;70.10;100911.42;1775815;78;21334;-56
2023/09/12 03:13:20;;;;;;;18.10;11.60;;;;;;;10.93;70.14;100919.47;1763781;79;21212;-56
2023/09/12 03:16:27;;;;;;;20.57;11.50;;;;;;;10.95;70.23;100907.84;1758135;79;21471;-56
2023/09/12 03:19:33;;;;;;;20.75;14.00;;;;;;;10.97;70.28;100916.77;1793893;77;21355;-57
2023/09/12 03:22:39;;;;;;;23.15;14.55;;;;;;;10.97;70.32;100921.73;1717246;79;21224;-55
2023/09/12 03:25:46;;;;;;;22.52;13.38;;;;;;;10.99;70.37;100914.72;1757088;79;21776;-56
2023/09/12 03:28:51;;;;;;;23.65;14.73;;;;;;;11.01;70.40;100918.13;1737215;80;21981;-55
2023/09/12 03:31:59;;;;;;;27.58;16.37;;;;;;;11.04;70.50;100914.55;1756898;80;21349;-56
2023/09/12 03:35:05;;;;;;;39.67;21.50;;;;;;;11.10;70.62;100915.78;1702731;82;21369;-56
2023/09/12 03:38:12;;;;;;;35.52;22.13;;;;;;;11.13;70.61;100918.19;1707960;82;21338;-56
2023/09/12 03:41:17;;;;;;;36.58;22.87;;;;;;;11.15;70.63;100907.90;1734190;80;21863;-56
2023/09/12 03:44:24;;;;;;;105.15;53.13;;;;;;;11.17;70.67;100909.97;1749740;79;21460;-56
2023/09/12 03:47:29;;;;;;;73.37;38.17;;;;;;;11.19;70.67;100914.28;1768934;81;21371;-56
2023/09/12 03:50:35;;;;;;;82.20;44.53;;;;;;;11.23;70.72;100912.03;1751944;79;21238;-56
2023/09/12 03:53:42;;;;;;;94.40;49.10;;;;;;;11.28;70.86;100916.00;1776019;80;21886;-56
2023/09/12 03:56:47;;;;;;;112.92;60.17;;;;;;;11.32;70.87;100917.38;1760400;78;21471;-55
2023/09/12 03:59:53;;;;;;;104.53;55.83;;;;;;;11.37;70.94;100915.52;1754656;80;21449;-55
2023/09/12 04:03:01;;;;;;;87.10;50.58;;;;;;;11.42;71.04;100911.23;1758521;80;21810;-54
2023/09/12 04:06:08;;;;;;;86.65;47.65;;;;;;;11.48;71.09;100913.83;1754134;80;21235;-56
2023/09/12 04:09:14;;;;;;;69.35;42.50;;;;;;;11.51;71.06;100921.18;1728809;80;21291;-56
2023/09/12 04:12:22;;;;;;;64.42;37.45;;;;;;;11.57;71.16;100921.91;1702288;81;21300;-56
2023/09/12 04:15:27;;;;;;;49.95;31.42;;;;;;;11.63;71.25;100914.90;1742288;81;21219;-56
2023/09/12 04:18:33;;;;;;;71.25;39.50;;;;;;;11.71;71.37;100916.28;1748951;81;21397;-55
2023/09/12 04:21:41;;;;;;;56.55;33.98;;;;;;;11.77;71.47;100921.08;1780520;80;21404;-55
2023/09/12 04:24:46;;;;;;;60.25;32.40;;;;;;;11.83;71.54;100919.02;1749275;81;21427;-56
2023/09/12 04:27:52;;;;;;;64.55;36.80;;;;;;;11.90;71.60;100921.44;1811817;78;21421;-56
2023/09/12 04:30:59;;;;;;;56.53;32.55;;;;;;;11.96;71.65;100916.62;1772159;79;21414;-55
2023/09/12 04:34:06;;;;;;;49.60;31.50;;;;;;;12.04;71.75;100920.75;1786816;78;21374;-56
2023/09/12 04:37:12;;;;;;;47.70;29.70;;;;;;;12.11;71.84;100919.04;1801435;79;21353;-56
2023/09/12 04:40:19;;;;;;;47.65;27.45;;;;;;;12.21;71.93;100914.74;1780306;77;21343;-54
2023/09/12 04:43:25;;;;;;;39.53;25.30;;;;;;;12.29;71.99;100911.45;1722160;81;21279;-54
2023/09/12 04:46:31;;;;;;;49.27;25.48;;;;;;;12.42;72.05;100920.52;1744768;80;21215;-55
2023/09/12 04:49:38;;;;;;;38.90;24.02;;;;;;;12.55;72.06;100920.34;1758536;79;21275;-55
2023/09/12 04:52:46;;;;;;;44.77;23.95;;;;;;;12.69;72.07;100920.98;1795378;79;21733;-56
2023/09/12 04:55:53;;;;;;;43.02;25.57;;;;;;;12.82;72.12;100918.54;1772572;80;21892;-54
2023/09/12 04:58:59;;;;;;;56.00;31.37;;;;;;;12.98;72.19;100921.23;1794841;79;21765;-55
2023/09/12 05:02:05;;;;;;;57.98;30.77;;;;;;;13.09;72.27;100923.62;1790092;79;21247;-56
2023/09/12 05:05:11;;;;;;;59.20;30.77;;;;;;;13.22;72.39;100919.75;1769202;81;21208;-53
2023/09/12 05:08:18;;;;;;;52.75;28.38;;;;;;;13.33;72.44;100919.34;1768905;80;21192;-56
2023/09/12 05:11:24;;;;;;;53.83;25.08;;;;;;;13.45;72.47;100925.30;1745084;82;21224;-54
2023/09/12 05:14:28;;;;;;;45.23;26.52;;;;;;;13.51;72.43;100924.06;1770224;80;21204;-56
2023/09/12 05:17:35;;;;;;;45.88;27.62;;;;;;;13.58;72.47;100921.44;1771430;81;21464;-52
2023/09/12 05:20:41;;;;;;;69.70;37.90;;;;;;;13.67;72.50;100928.59;1782103;78;21354;-50
2023/09/12 05:23:47;;;;;;;55.33;30.15;;;;;;;13.76;72.54;100928.03;1788742;79;21339;-50
2023/09/12 05:26:52;;;;;;;49.10;28.15;;;;;;;13.83;72.61;100927.10;1804245;79;21443;-51
2023/09/12 05:29:58;;;;;;;35.88;23.70;;;;;;;13.92;72.64;100924.61;1771844;79;21212;-54
2023/09/12 05:33:06;;;;;;;32.90;21.25;;;;;;;14.01;72.67;100929.55;1739933;79;21328;-52
2023/09/12 05:36:14;;;;;;;34.65;20.57;;;;;;;14.09;72.68;100927.59;1739897;80;21421;-51
2023/09/12 05:39:19;;;;;;;32.58;18.82;;;;;;;14.17;72.71;100936.30;1716444;82;21376;-52
2023/09/12 05:42:26;;;;;;;33.05;21.42;;;;;;;14.25;72.75;100923.86;1747295;79;21378;-48
2023/09/12 05:45:32;;;;;;;34.70;21.57;;;;;;;14.34;72.80;100933.75;1723768;81;21216;-49
2023/09/12 05:48:39;;;;;;;33.28;19.17;;;;;;;14.42;72.82;100930.92;1771879;79;21358;-49
2023/09/12 05:51:46;;;;;;;30.52;17.20;;;;;;;14.48;72.85;100931.03;1790303;79;21403;-49
2023/09/12 05:54:52;;;;;;;25.12;15.40;;;;;;;14.57;72.90;100938.16;1765592;80;21724;-49
2023/09/12 05:57:57;;;;;;;22.37;13.93;;;;;;;14.69;72.96;100937.19;1703405;79;21360;-50
2023/09/12 06:01:02;;;;;;;21.68;13.15;;;;;;;14.80;72.97;100938.95;1789142;78;21485;-48
2023/09/12 06:04:09;;;;;;;22.45;13.72;;;;;;;14.93;72.98;100939.67;1744687;81;21260;-49
2023/09/12 06:07:15;;;;;;;16.35;12.53;;;;;;;15.05;73.00;100940.89;1792174;79;21363;-49
2023/09/12 06:10:20;;;;;;;19.35;13.53;;;;;;;15.19;73.05;100947.45;1778868;78;21311;-49
2023/09/12 06:13:27;;;;;;;21.10;14.30;;;;;;;15.33;73.09;100954.34;1794518;79;21185;-48
2023/09/12 06:16:32;;;;;;;20.68;13.43;;;;;;;15.48;73.14;100947.42;1766668;81;21891;-49
2023/09/12 06:19:39;;;;;;;47.53;31.80;;;;;;;15.61;73.17;100949.83;1796867;79;21803;-48
2023/09/12 06:22:45;;;;;;;24.05;16.50;;;;;;;15.75;73.18;100942.55;1758726;81;21343;-48
2023/09/12 06:25:45;;;;;;;18.98;12.85;;;;;;;15.88;73.19;100949.08;1794751;79;21737;-49
2023/09/12 06:28:39;;;;;;;18.30;13.05;;;;;;;16.00;73.19;100947.49;1798515;79;21900;-48
2023/09/12 06:31:27;;;;;;;16.90;12.03;;;;;;;16.12;73.18;100944.55;1775315;81;21223;-48
2023/09/12 06:34:27;;;;;;;19.80;13.03;;;;;;;16.24;73.21;100955.38;1769787;80;21233;-47
2023/09/12 06:37:33;;;;;;;19.52;11.73;;;;;;;16.38;73.25;100959.97;1783070;80;21335;-48
2023/09/12 06:40:40;;;;;;;18.55;13.05;;;;;;;16.54;73.27;100967.14;1743821;80;21451;-48
2023/09/12 06:43:45;;;;;;;17.37;12.00;;;;;;;16.68;73.27;100956.52;1761719;79;21394;-49
2023/09/12 06:46:50;;;;;;;25.00;14.10;;;;;;;16.83;73.28;100960.05;1742960;80;21547;-49
2023/09/12 06:49:55;;;;;;;18.12;12.70;;;;;;;16.98;73.23;100966.30;1751727;79;21559;-48
2023/09/12 06:53:03;;;;;;;20.23;12.33;;;;;;;17.15;73.25;100958.54;1759802;79;21748;-50
2023/09/12 06:56:08;;;;;;;19.80;12.30;;;;;;;17.31;73.23;100967.89;1785115;79;21216;-50
2023/09/12 06:59:15;;;;;;;20.77;10.30;;;;;;;17.46;73.19;100968.09;1767927;79;21509;-50
2023/09/12 07:02:21;;;;;;;12.95;10.30;;;;;;;17.60;73.12;100961.55;1771446;80;21706;-50
2023/09/12 07:05:27;;;;;;;17.90;11.30;;;;;;;17.73;73.07;100964.38;1790605;79;21243;-50
2023/09/12 07:08:33;;;;;;;11.03;9.45;;;;;;;17.89;73.06;100967.30;1744998;82;21939;-50
2023/09/12 07:11:38;;;;;;;12.65;9.58;;;;;;;18.01;73.00;100973.09;1787531;79;21356;-50
2023/09/12 07:14:44;;;;;;;14.70;10.53;;;;;;;18.11;72.90;100964.67;1781778;79;21347;-49
2023/09/12 07:17:52;;;;;;;13.35;9.30;;;;;;;18.24;72.85;100966.09;1769012;80;21546;-50
2023/09/12 07:21:06;;;;;;;10.95;8.30;;;;;;;18.34;72.80;100965.67;1788178;79;21344;-49
2023/09/12 07:24:13;;;;;;;12.40;8.85;;;;;;;18.43;72.73;100966.67;1795360;79;21351;-49
2023/09/12 07:27:21;;;;;;;10.03;8.30;;;;;;;18.53;72.63;100974.05;1775277;79;21370;-51
2023/09/12 07:30:28;;;;;;;9.43;7.53;;;;;;;18.63;72.61;100960.58;1772325;79;21799;-49
2023/09/12 07:33:34;;;;;;;9.18;7.25;;;;;;;18.74;72.61;100966.88;1729096;78;21800;-50
2023/09/12 07:36:41;;;;;;;13.98;7.42;;;;;;;18.83;72.55;100965.61;1722400;80;21317;-48
2023/09/12 07:39:46;;;;;;;10.75;6.92;;;;;;;18.94;72.51;100957.15;1788710;77;21350;-49
2023/09/12 07:42:53;;;;;;;9.38;7.33;;;;;;;19.03;72.40;100964.17;1777358;77;21341;-49
2023/09/12 07:46:04;;;;;;;8.50;7.00;;;;;;;19.12;72.24;100961.50;1750365;80;21389;-49
2023/09/12 07:49:11;;;;;;;11.57;7.05;;;;;;;19.21;72.18;100958.27;1782834;77;21990;-55
2023/09/12 07:52:18;;;;;;;10.53;6.35;;;;;;;19.31;72.06;100963.41;1779899;79;21404;-53
2023/09/12 07:55:24;;;;;;;13.15;7.28;;;;;;;19.44;72.02;100962.50;1767516;79;21300;-54
2023/09/12 07:58:30;;;;;;;9.50;6.20;;;;;;;19.57;71.91;100968.02;1762560;78;21370;-55
2023/09/12 08:01:36;;;;;;;10.60;5.83;;;;;;;19.69;71.81;100964.84;1757670;79;21203;-55
2023/09/12 08:04:43;;;;;;;6.35;4.92;;;;;;;19.85;71.77;100965.73;1738300;81;21732;-58
2023/09/12 08:07:48;;;;;;;8.23;5.15;;;;;;;20.00;71.60;100963.49;1769333;79;21270;-56
2023/09/12 08:10:54;;;;;;;6.00;4.08;;;;;;;20.20;71.51;100967.05;1777312;79;21216;-56
2023/09/12 08:13:59;;;;;;;4.97;4.25;;;;;;;20.38;71.31;100964.34;1755711;79;21248;-56
2023/09/12 08:17:05;;;;;;;5.28;4.30;;;;;;;20.54;71.03;100965.18;1755102;79;21242;-55
2023/09/12 08:20:13;;;;;;;6.30;4.35;;;;;;;20.71;70.78;100960.74;1734937;78;21390;-53
2023/09/12 08:23:19;;;;;;;5.47;3.95;;;;;;;20.91;70.61;100961.43;1750172;77;21850;-54
2023/09/12 08:26:25;;;;;;;6.47;4.28;;;;;;;21.11;70.37;100966.28;1710941;82;21789;-53
2023/09/12 08:29:32;;;;;;;7.17;4.95;;;;;;;21.22;69.96;100962.73;1724808;81;21402;-54
2023/09/12 08:32:39;;;;;;;6.37;4.78;;;;;;;21.31;69.67;100964.12;1761534;79;21844;-55
2023/09/12 08:35:46;;;;;;;5.92;4.35;;;;;;;21.38;69.32;100959.88;1754010;79;21270;-54
2023/09/12 08:38:54;;;;;;;5.87;4.83;;;;;;;21.38;68.96;100964.91;1790263;78;21839;-57
2023/09/12 08:42:00;;;;;;;5.65;4.28;;;;;;;21.35;68.64;100963.13;1771342;77;21812;-55
2023/09/12 08:45:06;;;;;;;7.42;4.90;;;;;;;21.32;68.39;100958.02;1780588;79;21405;-56
2023/09/12 08:48:13;;;;;;;5.40;4.35;;;;;;;21.32;68.21;100954.70;1786124;79;21866;-56
2023/09/12 08:51:21;;;;;;;7.22;4.60;;;;;;;21.36;68.02;100954.53;1753624;79;21910;-49
2023/09/12 08:54:28;;;;;;;8.03;5.15;;;;;;;21.44;67.84;100958.94;1762540;79;21371;-49
2023/09/12 08:57:39;;;;;;;10.20;4.72;;;;;;;21.53;67.65;100957.00;1744119;79;21737;-51
2023/09/12 09:00:46;;;;;;;9.33;4.80;;;;;;;21.70;67.54;100953.05;1742306;80;21295;-54
2023/09/12 09:03:52;;;;;;;7.95;4.15;;;;;;;21.88;67.39;100956.67;1753743;80;21208;-55
2023/09/12 09:07:01;;;;;;;13.08;4.90;;;;;;;22.02;67.10;100949.82;1720587;81;21334;-54
2023/09/12 09:10:10;;;;;;;9.60;4.90;;;;;;;22.09;66.67;100958.95;1751993;78;21324;-55
2023/09/12 09:13:17;;;;;;;8.63;4.50;;;;;;;22.09;66.41;100959.49;1768770;79;22151;-56
2023/09/12 09:16:25;;;;;;;7.47;4.55;;;;;;;22.06;66.06;100963.61;1746187;78;21751;-57
2023/09/12 09:19:35;;;;;;;8.63;4.72;;;;;;;22.10;65.83;100958.42;1782405;77;21276;-56
2023/09/12 09:22:40;;;;;;;7.95;4.75;;;;;;;22.16;65.62;100951.89;1728248;78;21174;-55
2023/09/12 09:25:48;;;;;;;8.25;4.47;;;;;;;22.22;65.42;100949.54;1703425;80;21239;-54
2023/09/12 09:29:14;;;;;;;6.12;4.20;;;;;;;22.32;65.26;100951.75;1718058;81;21906;-56
2023/09/12 09:32:25;;;;;;;5.62;3.98;;;;;;;22.36;65.01;100952.98;1720439;81;21215;-55
2023/09/12 09:35:31;;;;;;;10.70;4.47;;;;;;;22.45;64.73;100950.15;1742858;78;21563;-55
2023/09/12 09:38:37;;;;;;;6.55;4.40;;;;;;;22.49;64.37;100945.23;1760280;78;21808;-55
2023/09/12 09:41:44;;;;;;;5.33;4.20;;;;;;;22.50;64.01;100937.73;1777868;78;21919;-57
2023/09/12 09:44:49;;;;;;;7.47;3.95;;;;;;;22.52;63.70;100939.20;1754254;81;21385;-55
2023/09/12 09:47:59;;;;;;;5.55;4.12;;;;;;;22.54;63.42;100938.97;1797449;78;21418;-55
2023/09/12 09:51:09;;;;;;;6.47;3.67;;;;;;;22.59;63.20;100939.10;1804749;78;21359;-55
2023/09/12 09:54:17;;;;;;;6.92;3.77;;;;;;;22.62;62.91;100938.62;1729674;82;21225;-55
2023/09/12 09:57:23;;;;;;;5.22;4.33;;;;;;;22.68;62.65;100942.69;1784809;79;21228;-54
2023/09/12 10:00:31;;;;;;;5.58;4.00;;;;;;;22.74;62.42;100929.73;1777823;79;21409;-52
2023/09/12 10:03:37;;;;;;;6.75;3.87;;;;;;;22.82;62.21;100933.52;1753323;79;21216;-53
2023/09/12 10:06:45;;;;;;;8.60;4.60;;;;;;;22.88;61.92;100929.79;1791187;78;21687;-53
2023/09/12 10:09:51;;;;;;;6.92;4.00;;;;;;;22.95;61.66;100930.50;1760340;79;21374;-53
2023/09/12 10:13:01;;;;;;;8.50;3.87;;;;;;;23.04;61.46;100927.66;1762053;79;21878;-53
2023/09/12 10:16:09;;;;;;;4.85;3.80;;;;;;;23.06;61.17;100930.50;1782518;79;21837;-53
2023/09/12 10:19:33;;;;;;;6.03;3.72;;;;;;;23.15;60.94;100921.21;1726813;80;21240;-53
2023/09/12 10:22:47;;;;;;;6.67;4.08;;;;;;;23.29;60.74;100919.31;1734919;80;21394;-53
2023/09/12 10:25:53;;;;;;;6.25;4.22;;;;;;;23.47;60.43;100928.09;1776233;78;21477;-53
2023/09/12 10:29:00;;;;;;;7.08;3.50;;;;;;;23.62;60.12;100922.84;1791424;79;21196;-54
2023/09/12 10:32:05;;;;;;;4.37;3.27;;;;;;;23.73;59.79;100924.74;1782442;78;22022;-53
2023/09/12 10:35:13;;;;;;;7.20;3.17;;;;;;;23.76;59.39;100920.05;1725649;80;21621;-52
2023/09/12 10:38:19;;;;;;;6.25;3.65;;;;;;;23.75;58.99;100930.09;1776166;78;21212;-52
2023/09/12 10:41:24;;;;;;;8.73;4.08;;;;;;;23.61;58.62;100929.50;1762060;80;21329;-53
2023/09/12 10:44:30;;;;;;;10.50;4.40;;;;;;;23.41;58.21;100918.77;1731181;80;21505;-52
2023/09/12 10:47:36;;;;;;;6.08;3.92;;;;;;;23.24;57.96;100918.34;1771290;79;21208;-52
2023/09/12 10:50:42;;;;;;;6.45;4.03;;;;;;;23.21;57.83;100913.24;1782088;79;21338;-53
2023/09/12 10:53:56;;;;;;;5.85;3.67;;;;;;;23.30;57.74;100912.65;1781205;79;21888;-53
2023/09/12 10:57:17;;;;;;;6.42;3.47;;;;;;;23.46;57.65;100906.84;1783355;79;21255;-52
2023/09/12 11:00:22;;;;;;;4.40;3.40;;;;;;;23.59;57.37;100910.19;1789369;79;21355;-55
2023/09/12 11:03:42;;;;;;;5.12;3.67;;;;;;;23.66;57.05;100902.23;1795802;79;21325;-54
2023/09/12 11:06:48;;;;;;;4.95;3.30;;;;;;;23.76;56.84;100901.87;1773292;79;21221;-55
2023/09/12 11:09:57;;;;;;;7.00;3.90;;;;;;;23.88;56.67;100901.83;1790549;79;21212;-53
2023/09/12 11:13:03;;;;;;;5.03;3.77;;;;;;;23.97;56.41;100890.56;1739544;79;21192;-51
2023/09/12 11:16:20;;;;;;;6.62;4.25;;;;;;;24.07;56.25;100891.59;1789705;79;21343;-50
2023/09/12 11:19:31;;;;;;;5.58;3.10;;;;;;;24.20;55.98;100889.02;1769090;80;21308;-50
2023/09/12 11:22:42;;;;;;;4.50;3.58;;;;;;;24.37;55.80;100896.33;1801593;79;21378;-53
2023/09/12 11:25:48;;;;;;;5.90;3.17;;;;;;;24.46;55.39;100894.83;1772311;78;21394;-52
2023/09/12 11:28:55;;;;;;;5.15;3.35;;;;;;;24.50;54.96;100891.80;1783226;79;21212;-55
2023/09/12 11:32:04;;;;;;;5.78;3.25;;;;;;;24.59;54.71;100888.04;1776002;78;21642;-55
2023/09/12 11:35:16;;;;;;;7.08;3.22;;;;;;;24.66;54.38;100881.19;1792526;79;21415;-55
2023/09/12 11:38:22;;;;;;;5.55;3.47;;;;;;;24.69;53.91;100884.87;1737885;79;21294;-55
2023/09/12 11:41:48;;;;;;;6.62;3.40;;;;;;;24.80;53.80;100875.52;1749494;79;21221;-55
2023/09/12 11:44:56;;;;;;;3.45;2.85;;;;;;;24.98;53.64;100871.05;1714352;82;21247;-54
2023/09/12 11:48:02;;;;;;;4.60;2.95;;;;;;;25.15;53.36;100867.35;1771329;80;21346;-55
2023/09/12 11:51:09;;;;;;;6.53;3.52;;;;;;;25.21;52.87;100866.31;1790829;79;21370;-55
2023/09/12 11:54:14;;;;;;;4.37;3.58;;;;;;;25.27;52.51;100868.06;1793521;79;21432;-55
2023/09/12 11:57:15;;;;;;;3.52;3.02;;;;;;;25.30;52.11;100860.53;1734806;82;21329;-54
2023/09/12 12:00:11;;;;;;;4.45;2.75;;;;;;;25.36;51.84;100862.32;1792139;79;21657;-55
2023/09/12 12:02:57;;;;;;;6.25;3.10;;;;;;;25.41;51.57;100849.23;1734489;82;21240;-54
2023/09/12 12:05:51;;;;;;;6.42;3.40;;;;;;;25.42;51.17;100853.72;1759989;81;21347;-54
2023/09/12 12:08:37;;;;;;;4.05;3.05;;;;;;;25.37;50.84;100850.02;1782841;79;21338;-53
2023/09/12 12:11:31;;;;;;;4.53;3.17;;;;;;;25.38;50.66;100848.90;1760616;80;21566;-54
2023/09/12 12:14:19;;;;;;;7.00;2.92;;;;;;;25.45;50.52;100848.16;1801798;79;21180;-54
2023/09/12 12:17:16;;;;;;;5.50;3.40;;;;;;;25.49;50.20;100842.30;1801864;79;21371;-54
2023/09/12 12:20:10;;;;;;;6.42;3.00;;;;;;;25.51;49.87;100845.16;1792663;79;21323;-54
2023/09/12 12:22:59;;;;;;;4.87;3.42;;;;;;;25.54;49.63;100840.42;1747276;80;21440;-54
2023/09/12 12:25:47;;;;;;;9.28;2.92;;;;;;;25.59;49.39;100842.44;1739189;80;21181;-53
2023/09/12 12:28:39;;;;;;;6.28;2.90;;;;;;;25.60;49.03;100839.91;1770684;80;21196;-53
2023/09/12 12:31:26;;;;;;;5.62;3.08;;;;;;;25.59;48.73;100839.63;1785265;79;21204;-53
2023/09/12 12:34:21;;;;;;;3.40;2.50;;;;;;;25.58;48.44;100837.91;1801818;79;21180;-54
2023/09/12 12:37:08;;;;;;;7.62;3.08;;;;;;;25.54;48.09;100838.16;1743495;81;21796;-55
2023/09/12 12:40:03;;;;;;;3.37;2.80;;;;;;;25.50;47.85;100830.83;1796254;79;21332;-54
2023/09/12 12:42:52;;;;;;;7.53;4.47;;;;;;;25.48;47.52;100833.03;1802742;79;21768;-55
2023/09/12 12:46:02;;;;;;;4.28;3.30;;;;;;;25.42;47.16;100822.88;1771292;79;22004;-56
2023/09/12 12:49:08;;;;;;;4.50;3.27;;;;;;;25.36;46.81;100821.67;1737669;80;21207;-55
2023/09/12 12:52:18;;;;;;;3.67;2.80;;;;;;;25.24;46.36;100820.94;1724931;79;21301;-56
2023/09/12 12:55:24;;;;;;;8.00;3.08;;;;;;;25.08;46.02;100833.34;1751251;78;21292;-56
2023/09/12 12:58:33;;;;;;;3.45;2.62;;;;;;;24.99;45.79;100828.44;1771560;79;21232;-56
2023/09/12 13:01:39;;;;;;;4.22;2.80;;;;;;;24.94;45.61;100825.02;1773472;78;21409;-55
2023/09/12 13:04:46;;;;;;;6.12;2.72;;;;;;;24.86;45.34;100819.86;1765689;79;21701;-56
2023/09/12 13:07:53;;;;;;;4.25;3.00;;;;;;;24.83;45.13;100823.19;1758500;79;21251;-56
2023/09/12 13:11:00;;;;;;;4.55;2.83;;;;;;;24.85;45.10;100815.92;1771501;78;21752;-54
2023/09/12 13:14:12;;;;;;;6.40;3.15;;;;;;;24.87;44.92;100820.17;1760200;79;21757;-55
2023/09/12 13:17:19;;;;;;;5.37;2.83;;;;;;;24.89;44.66;100816.54;1800756;79;21325;-55
2023/09/12 13:20:25;;;;;;;6.50;3.60;;;;;;;24.89;44.49;100819.92;1771927;80;21189;-57
2023/09/12 13:23:32;;;;;;;5.30;3.40;;;;;;;24.86;44.28;100811.46;1786650;79;21490;-55
2023/09/12 13:26:40;;;;;;;5.95;3.25;;;;;;;24.80;44.01;100813.08;1777826;79;21204;-58
2023/09/12 13:29:47;;;;;;;7.97;3.60;;;;;;;24.76;43.94;100821.68;1789429;79;21582;-56
2023/09/12 13:32:55;;;;;;;4.58;3.00;;;;;;;24.69;43.80;100810.66;1785965;78;21340;-53
2023/09/12 13:36:01;;;;;;;6.35;3.30;;;;;;;24.63;43.66;100825.66;1723434;79;21801;-53
2023/09/12 13:39:07;;;;;;;9.33;3.77;;;;;;;24.58;43.58;100820.52;1768243;79;21601;-53
2023/09/12 13:42:20;;;;;;;6.17;3.52;;;;;;;24.55;43.51;100824.70;1698051;81;21223;-54
2023/09/12 13:45:27;;;;;;;5.15;3.30;;;;;;;24.51;43.42;100824.93;1739548;79;21260;-53
2023/09/12 13:48:34;;;;;;;8.43;3.37;;;;;;;24.47;43.35;100822.33;1793903;79;21287;-54
2023/09/12 13:51:41;;;;;;;5.33;3.80;;;;;;;24.43;43.26;100822.56;1756177;78;21389;-55
2023/09/12 13:54:49;;;;;;;7.90;3.75;;;;;;;24.35;43.19;100827.19;1721412;80;21217;-54
2023/09/12 13:57:56;;;;;;;6.55;4.70;;;;;;;24.32;43.15;100822.64;1732629;79;21191;-52
2023/09/12 14:01:02;;;;;;;16.40;5.90;;;;;;;24.26;43.05;100820.88;1735701;80;21219;-54
2023/09/12 14:04:10;;;;;;;4.85;3.77;;;;;;;24.22;43.03;100822.46;1743334;78;21181;-55
2023/09/12 14:07:15;;;;;;;7.22;3.40;;;;;;;24.21;43.02;100824.44;1746311;82;21579;-53
2023/09/12 14:10:22;;;;;;;7.42;4.17;;;;;;;24.20;42.91;100821.86;1756750;79;21212;-54
2023/09/12 14:13:30;;;;;;;6.42;4.05;;;;;;;24.18;42.86;100825.48;1739727;77;21208;-55
2023/09/12 14:16:35;;;;;;;9.10;5.00;;;;;;;24.15;42.80;100817.03;1734919;79;21795;-52